»·PEaware :: N178DM KAWO-KBLI

N178DM :: KAWO-KBLI

FLIGHT INFORMATION

Flight Status: Arrived
Operator: Privately registered:
United States
More flights under this callsign
Pilot: Bill P. (43336)
Aircraft: CESSNA 172 SKYHAWK
(C172)
More flights by this aircraft type
Origin: KAWO Arlington Mun
United States
Destination: KBLI Bellingham Intl
United States
More flights between these airports :: More routes between these airports
Route:
File this flight plan on PilotEdge
Remarks:
Altitude:
(Current/Filed)
4,500ft
Speed:
(Current/Filed)
120kts
Departed: 22-Mar-23 04:56 PM
Arrived: 22-Mar-23 05:23 PM
Distance/Time
Traveled:
41nm/0:27
Distance/Time
To Go:
Arrived

Flight Plot

Page will automatically refresh every two minutes.

Flight plan parsing failed; only flown route is shown


Map Options




Map Legend


Flown Route
Filed Route
Departure Airport
Arrival Airport
Navaid (VOR, NDB)
Fix

Horizontal Profiles

Position Reports

Time Latitude Longitude Heading Altitude Ground
Speed
22-Mar-23 16:33 48.160242 -122.153842 271 136ft 0kts
22-Mar-23 16:34 48.160242 -122.153842 271 136ft 0kts
22-Mar-23 16:35 48.160242 -122.153842 271 136ft 0kts
22-Mar-23 16:36 48.160242 -122.153842 271 136ft 0kts
22-Mar-23 16:37 48.160242 -122.153842 271 136ft 0kts
22-Mar-23 16:38 48.160242 -122.153842 271 136ft 0kts
22-Mar-23 16:39 48.160242 -122.153842 271 136ft 0kts
22-Mar-23 16:40 48.160242 -122.153842 271 136ft 0kts
22-Mar-23 16:41 48.160242 -122.153842 271 136ft 0kts
22-Mar-23 16:42 48.160242 -122.153842 271 136ft 0kts
22-Mar-23 16:43 48.160242 -122.153842 271 136ft 0kts
22-Mar-23 16:44 48.160242 -122.153842 271 136ft 0kts
22-Mar-23 16:45 48.160242 -122.153842 271 136ft 0kts
22-Mar-23 16:47 48.160242 -122.153842 271 136ft 0kts
22-Mar-23 16:48 48.160242 -122.153842 271 136ft 0kts
22-Mar-23 16:49 48.160242 -122.153842 271 136ft 0kts
22-Mar-23 16:50 48.160242 -122.153842 271 136ft 0kts
22-Mar-23 16:51 48.160242 -122.153842 271 136ft 0kts
22-Mar-23 16:52 48.159511 -122.154227 177 135ft 16kts
22-Mar-23 16:53 48.155482 -122.155084 263 132ft 0kts
22-Mar-23 16:54 48.155533 -122.156282 356 132ft 0kts
22-Mar-23 16:55 48.165305 -122.156269 358 267ft 86kts
22-Mar-23 16:56 48.190115 -122.159836 343 1153ft 90kts
22-Mar-23 16:57 48.211864 -122.181434 319 1774ft 93kts
22-Mar-23 16:58 48.233878 -122.203329 323 2513ft 96kts
22-Mar-23 16:59 48.259120 -122.221077 332 3150ft 101kts
22-Mar-23 17:00 48.284920 -122.237393 332 3811ft 97kts
22-Mar-23 17:01 48.307889 -122.255634 323 4503ft 99kts
22-Mar-23 17:02 48.337012 -122.272994 350 4519ft 123kts
22-Mar-23 17:03 48.370864 -122.284819 338 4515ft 124kts
22-Mar-23 17:04 48.402908 -122.303526 336 4512ft 122kts
22-Mar-23 17:05 48.434156 -122.322117 336 4504ft 115kts
22-Mar-23 17:06 48.464154 -122.340026 336 4491ft 115kts
22-Mar-23 17:07 48.494880 -122.358309 336 4075ft 119kts
22-Mar-23 17:08 48.525517 -122.376636 336 3466ft 118kts
22-Mar-23 17:09 48.556066 -122.394941 336 2863ft 118kts
22-Mar-23 17:10 48.582867 -122.421424 320 2239ft 113kts
22-Mar-23 17:11 48.607169 -122.450192 316 1653ft 114kts
22-Mar-23 17:12 48.629697 -122.481019 316 1206ft 104kts
22-Mar-23 17:13 48.653117 -122.500377 349 1183ft 105kts
22-Mar-23 17:14 48.682426 -122.504114 354 1191ft 106kts
22-Mar-23 17:15 48.712206 -122.507110 357 1159ft 108kts
22-Mar-23 17:16 48.741639 -122.514795 344 1131ft 108kts
22-Mar-23 17:17 48.770763 -122.517279 4 1178ft 105kts
22-Mar-23 17:18 48.800160 -122.513011 0 1217ft 103kts
22-Mar-23 17:19 48.823947 -122.513415 301 954ft 69kts
22-Mar-23 17:20 48.817916 -122.537744 181 564ft 75kts
22-Mar-23 17:21 48.798481 -122.537535 179 169ft 52kts
22-Mar-23 17:22 48.796775 -122.535499 125 168ft 6kts
22-Mar-23 17:23 48.794387 -122.533726 147 170ft 15kts
22-Mar-23 17:24 48.791773 -122.534648 185 171ft 5kts

Navigation Log

Ident Type
Flight plan parsing failed, navigation log unavailable